Time;durP1;ratioP1;P1;durP2;ratioP2;P2;SDS_P1;SDS_P2;PMS_P1;PMS_P2;Temp;Humidity;BMP_temperature;BMP_pressure;BME280_temperature;BME280_humidity;BME280_pressure;Samples;Min_cycle;Max_cycle;Signal;HPM_P1;HPM_P2
2021/03/21 00:01:35;;;;;;;33.10;26.70;;;;;;;;;;5015321;28;20419;-68
2021/03/21 00:04:01;;;;;;;159.20;136.07;;;;;;;;;;5018295;28;20411;-69
2021/03/21 00:06:27;;;;;;;28.23;21.07;;;;;;;;;;5011524;28;20418;-69
2021/03/21 00:08:53;;;;;;;0.80;0.67;;;;;;;;;;5006428;28;20828;-69
2021/03/21 00:11:19;;;;;;;0.70;0.40;;;;;;;;;;5005935;28;20412;-69
2021/03/21 00:13:47;;;;;;;0.70;0.50;;;;;;;;;;4993572;28;20404;-69
2021/03/21 00:16:14;;;;;;;7.23;6.33;;;;;;;;;;5010982;28;20501;-69
2021/03/21 00:18:40;;;;;;;20.63;16.87;;;;;;;;;;5011291;28;20429;-69
2021/03/21 00:21:07;;;;;;;0.70;0.40;;;;;;;;;;5010624;28;20415;-69
2021/03/21 00:23:33;;;;;;;0.70;0.40;;;;;;;;;;5011076;28;20812;-69
2021/03/21 00:26:00;;;;;;;52.37;37.63;;;;;;;;;;5011278;28;20494;-69
2021/03/21 00:28:28;;;;;;;0.70;0.50;;;;;;;;;;5010949;28;20452;-69
2021/03/21 00:30:54;;;;;;;0.70;0.50;;;;;;;;;;5010837;28;20495;-69
2021/03/21 00:33:21;;;;;;;1.50;0.70;;;;;;;;;;5010735;28;20411;-70
2021/03/21 00:35:47;;;;;;;16.10;9.33;;;;;;;;;;5011234;28;20435;-69
2021/03/21 00:38:18;;;;;;;53.87;45.10;;;;;;;;;;5010855;28;20480;-70
2021/03/21 00:40:44;;;;;;;0.70;0.40;;;;;;;;;;5010848;28;20388;-70
2021/03/21 00:43:10;;;;;;;0.70;0.50;;;;;;;;;;5011147;28;20888;-69
2021/03/21 00:45:36;;;;;;;0.70;0.50;;;;;;;;;;5010765;28;20379;-70
2021/03/21 00:48:03;;;;;;;0.87;0.50;;;;;;;;;;5014796;28;20403;-70
2021/03/21 00:50:31;;;;;;;0.80;0.57;;;;;;;;;;5014492;28;20969;-69
2021/03/21 00:52:57;;;;;;;1.10;0.70;;;;;;;;;;5014374;28;20900;-70
2021/03/21 00:55:24;;;;;;;0.70;0.50;;;;;;;;;;5014811;28;20396;-70
2021/03/21 00:57:50;;;;;;;0.70;0.40;;;;;;;;;;5014325;28;20400;-69
2021/03/21 01:00:21;;;;;;;0.70;0.50;;;;;;;;;;5014573;28;20998;-69
2021/03/21 01:02:48;;;;;;;0.70;0.40;;;;;;;;;;5014162;28;20443;-70
2021/03/21 01:05:16;;;;;;;1.30;1.13;;;;;;;;;;5014416;28;20440;-69
2021/03/21 01:07:42;;;;;;;0.70;0.50;;;;;;;;;;5014521;28;20407;-69
2021/03/21 01:10:08;;;;;;;0.80;0.50;;;;;;;;;;5020043;28;20830;-69
2021/03/21 01:12:34;;;;;;;2.53;2.27;;;;;;;;;;5018022;28;20388;-69
2021/03/21 01:15:00;;;;;;;0.70;0.40;;;;;;;;;;5013945;28;20428;-69
2021/03/21 01:17:26;;;;;;;0.70;0.50;;;;;;;;;;5013381;28;20401;-69
2021/03/21 01:19:52;;;;;;;0.70;0.40;;;;;;;;;;5014726;28;20428;-68
2021/03/21 01:22:18;;;;;;;0.70;0.50;;;;;;;;;;5013846;28;20441;-70
2021/03/21 01:24:44;;;;;;;0.70;0.40;;;;;;;;;;5014466;28;20413;-69
2021/03/21 01:27:10;;;;;;;0.70;0.50;;;;;;;;;;5013955;28;20496;-70
2021/03/21 01:29:37;;;;;;;0.70;0.40;;;;;;;;;;5014077;28;20502;-70
2021/03/21 01:32:07;;;;;;;2.00;0.80;;;;;;;;;;5013783;28;20475;-70
2021/03/21 01:34:33;;;;;;;0.70;0.50;;;;;;;;;;5013788;28;20413;-69
2021/03/21 01:36:59;;;;;;;0.83;0.70;;;;;;;;;;5013823;28;20400;-68
2021/03/21 01:39:26;;;;;;;1.37;1.27;;;;;;;;;;5011864;28;20452;-68
2021/03/21 01:41:57;;;;;;;0.70;0.43;;;;;;;;;;5005898;28;20427;-69
2021/03/21 01:44:23;;;;;;;0.70;0.50;;;;;;;;;;5013502;28;20912;-69
2021/03/21 01:46:52;;;;;;;1.40;0.90;;;;;;;;;;5013655;28;20413;-69
2021/03/21 01:49:21;;;;;;;2.60;0.90;;;;;;;;;;5013508;28;20432;-70
2021/03/21 01:51:49;;;;;;;0.70;0.50;;;;;;;;;;4997817;28;20405;-70
2021/03/21 01:54:17;;;;;;;0.70;0.40;;;;;;;;;;5015099;28;20489;-69
2021/03/21 01:56:44;;;;;;;0.80;0.63;;;;;;;;;;5013096;28;20408;-69
2021/03/21 01:59:10;;;;;;;1.10;0.53;;;;;;;;;;5012452;28;20424;-70
2021/03/21 02:01:36;;;;;;;0.80;0.60;;;;;;;;;;5013242;28;20987;-68
2021/03/21 02:04:03;;;;;;;1.00;0.67;;;;;;;;;;5013690;28;20775;-69
2021/03/21 02:06:35;;;;;;;0.70;0.50;;;;;;;;;;5013566;28;20419;-68
2021/03/21 02:09:19;;;;;;;0.70;0.60;;;;;;;;;;5013451;28;20535;-69
2021/03/21 02:12:04;;;;;;;1.20;0.50;;;;;;;;;;5013475;28;20428;-69
2021/03/21 02:14:34;;;;;;;0.70;0.40;;;;;;;;;;5013742;28;20432;-69
2021/03/21 02:17:06;;;;;;;0.70;0.50;;;;;;;;;;5013635;28;20450;-69
2021/03/21 02:19:47;;;;;;;0.70;0.50;;;;;;;;;;5013175;28;20425;-69
2021/03/21 02:22:20;;;;;;;0.70;0.40;;;;;;;;;;4999124;28;20421;-69
2021/03/21 02:25:02;;;;;;;0.70;0.40;;;;;;;;;;4993526;28;20398;-69
2021/03/21 02:27:37;;;;;;;1.57;1.30;;;;;;;;;;4993313;28;20765;-69
2021/03/21 02:30:13;;;;;;;0.70;0.40;;;;;;;;;;4993302;28;20452;-69
2021/03/21 02:32:58;;;;;;;0.70;0.40;;;;;;;;;;4992937;28;20742;-68
2021/03/21 02:35:32;;;;;;;0.70;0.60;;;;;;;;;;4993628;28;20481;-68
2021/03/21 02:38:02;;;;;;;0.80;0.50;;;;;;;;;;5011257;28;20488;-69
2021/03/21 02:40:31;;;;;;;0.80;0.73;;;;;;;;;;5012652;28;20430;-69
2021/03/21 02:43:03;;;;;;;0.97;0.57;;;;;;;;;;5012392;28;20408;-68
2021/03/21 02:45:31;;;;;;;0.70;0.50;;;;;;;;;;5001708;28;20410;-68
2021/03/21 02:48:03;;;;;;;0.70;0.50;;;;;;;;;;4997257;28;20379;-69
2021/03/21 02:50:33;;;;;;;10.13;5.67;;;;;;;;;;5010332;28;20515;-69
2021/03/21 02:53:02;;;;;;;0.70;0.50;;;;;;;;;;5012189;28;20454;-69
2021/03/21 02:55:28;;;;;;;92.63;82.47;;;;;;;;;;5012282;28;20484;-68
2021/03/21 02:58:05;;;;;;;0.70;0.40;;;;;;;;;;5012122;28;20499;-69
2021/03/21 03:00:36;;;;;;;0.70;0.50;;;;;;;;;;5012257;28;20893;-69
2021/03/21 03:03:04;;;;;;;0.70;0.47;;;;;;;;;;4993634;28;20394;-69
2021/03/21 03:05:33;;;;;;;0.70;0.50;;;;;;;;;;5011637;28;20417;-69
2021/03/21 03:08:06;;;;;;;0.70;0.50;;;;;;;;;;5008327;28;20417;-69
2021/03/21 03:10:37;;;;;;;0.70;0.40;;;;;;;;;;5017283;28;20942;-69
2021/03/21 03:13:05;;;;;;;0.70;0.50;;;;;;;;;;5011743;28;20495;-69
2021/03/21 03:15:32;;;;;;;0.80;0.80;;;;;;;;;;5012097;28;20401;-69
2021/03/21 03:18:02;;;;;;;0.70;0.50;;;;;;;;;;5012024;28;20893;-69
2021/03/21 03:20:49;;;;;;;1.57;1.33;;;;;;;;;;5011815;28;20488;-68
2021/03/21 03:23:30;;;;;;;0.70;0.50;;;;;;;;;;4992182;28;20410;-69
2021/03/21 03:25:56;;;;;;;0.70;0.40;;;;;;;;;;4992199;28;20456;-69
2021/03/21 03:28:25;;;;;;;1.33;0.60;;;;;;;;;;4992067;28;20408;-69
2021/03/21 03:30:54;;;;;;;0.70;0.50;;;;;;;;;;4974517;28;20780;-69
2021/03/21 03:33:23;;;;;;;0.70;0.50;;;;;;;;;;4991851;28;20781;-68
2021/03/21 03:35:49;;;;;;;0.90;0.50;;;;;;;;;;4992872;28;20408;-69
2021/03/21 03:38:15;;;;;;;0.70;0.47;;;;;;;;;;5011396;28;20767;-69
2021/03/21 03:40:42;;;;;;;0.80;0.53;;;;;;;;;;5011696;28;20394;-69
2021/03/21 03:43:27;;;;;;;0.70;0.50;;;;;;;;;;5011333;28;20404;-69
2021/03/21 03:46:11;;;;;;;0.70;0.40;;;;;;;;;;5011777;28;20472;-69
2021/03/21 03:48:44;;;;;;;0.70;0.40;;;;;;;;;;5011432;28;20539;-69
2021/03/21 03:51:17;;;;;;;0.73;0.57;;;;;;;;;;5011679;28;20408;-68
2021/03/21 03:54:02;;;;;;;0.70;0.40;;;;;;;;;;5011652;28;20407;-68
2021/03/21 03:56:31;;;;;;;0.70;0.60;;;;;;;;;;5020797;28;20409;-69
2021/03/21 03:59:04;;;;;;;0.70;0.60;;;;;;;;;;5013107;28;20451;-68
2021/03/21 04:01:33;;;;;;;0.70;0.50;;;;;;;;;;5003909;28;20777;-68
2021/03/21 04:04:08;;;;;;;0.70;0.50;;;;;;;;;;5011393;28;20741;-69
2021/03/21 04:06:42;;;;;;;1.00;0.73;;;;;;;;;;5011281;28;20396;-69
2021/03/21 04:09:20;;;;;;;0.70;0.40;;;;;;;;;;5011243;28;21038;-69
2021/03/21 04:11:45;;;;;;;0.70;0.50;;;;;;;;;;5010578;28;20392;-68
2021/03/21 04:14:23;;;;;;;111.03;92.93;;;;;;;;;;5011062;28;20485;-68
2021/03/21 04:17:01;;;;;;;0.70;0.50;;;;;;;;;;5013602;28;20973;-68
2021/03/21 04:19:31;;;;;;;0.70;0.40;;;;;;;;;;5005598;28;20429;-68
2021/03/21 04:21:59;;;;;;;0.70;0.40;;;;;;;;;;5016627;28;20408;-68
2021/03/21 04:24:31;;;;;;;1.10;0.60;;;;;;;;;;4989655;28;20419;-70
2021/03/21 04:27:02;;;;;;;0.70;0.40;;;;;;;;;;4997656;28;20412;-69
2021/03/21 04:29:34;;;;;;;0.97;0.97;;;;;;;;;;5015024;28;20816;-70
2021/03/21 04:32:02;;;;;;;0.70;0.40;;;;;;;;;;4997096;28;20409;-70
2021/03/21 04:34:28;;;;;;;1.30;0.93;;;;;;;;;;5014988;28;20405;-69
2021/03/21 04:36:56;;;;;;;0.70;0.50;;;;;;;;;;5014698;28;20402;-70
2021/03/21 04:39:25;;;;;;;1.77;1.67;;;;;;;;;;5014168;28;20510;-70
2021/03/21 04:41:55;;;;;;;0.73;0.50;;;;;;;;;;5014273;28;20409;-69
2021/03/21 04:44:27;;;;;;;0.70;0.50;;;;;;;;;;5014763;28;20411;-69
2021/03/21 04:46:57;;;;;;;0.70;0.50;;;;;;;;;;5014802;28;20427;-69
2021/03/21 04:49:24;;;;;;;0.70;0.50;;;;;;;;;;4996811;28;20556;-68
2021/03/21 04:51:53;;;;;;;0.70;0.50;;;;;;;;;;4996860;28;20916;-69
2021/03/21 04:54:25;;;;;;;0.80;0.60;;;;;;;;;;5014364;28;20484;-69
2021/03/21 04:56:59;;;;;;;0.70;0.40;;;;;;;;;;5014060;28;20574;-69
2021/03/21 04:59:26;;;;;;;0.70;0.50;;;;;;;;;;5014187;28;20526;-69
2021/03/21 05:01:52;;;;;;;0.70;0.50;;;;;;;;;;5007764;28;20434;-69
2021/03/21 05:04:19;;;;;;;0.70;0.60;;;;;;;;;;5018398;28;20420;-69
2021/03/21 05:06:45;;;;;;;0.70;0.40;;;;;;;;;;5013899;28;21075;-69
2021/03/21 05:09:15;;;;;;;1.27;0.97;;;;;;;;;;5013847;28;20452;-69
2021/03/21 05:11:42;;;;;;;1.20;1.03;;;;;;;;;;5013195;28;20403;-69
2021/03/21 05:14:15;;;;;;;0.70;0.40;;;;;;;;;;5013788;28;20454;-69
2021/03/21 05:16:55;;;;;;;1.07;0.97;;;;;;;;;;5013361;28;20509;-69
2021/03/21 05:19:23;;;;;;;0.80;0.70;;;;;;;;;;5015367;28;20427;-69
2021/03/21 05:21:52;;;;;;;1.73;0.93;;;;;;;;;;5012841;28;20436;-69
2021/03/21 05:24:27;;;;;;;1.07;0.97;;;;;;;;;;5013010;28;20425;-69
2021/03/21 05:26:59;;;;;;;0.87;0.77;;;;;;;;;;5017522;28;20420;-69
2021/03/21 05:29:28;;;;;;;5.70;0.80;;;;;;;;;;5014892;28;20464;-69
2021/03/21 05:31:55;;;;;;;0.70;0.60;;;;;;;;;;5013026;28;20749;-69
2021/03/21 05:34:21;;;;;;;0.73;0.60;;;;;;;;;;4995631;28;20496;-69
2021/03/21 05:36:56;;;;;;;0.80;0.80;;;;;;;;;;5013360;28;20955;-69
2021/03/21 05:39:29;;;;;;;0.80;0.60;;;;;;;;;;5012883;28;20444;-69
2021/03/21 05:42:04;;;;;;;0.80;0.50;;;;;;;;;;5012832;28;20779;-69
2021/03/21 05:44:30;;;;;;;0.90;0.73;;;;;;;;;;5011309;28;20922;-69
2021/03/21 05:47:15;;;;;;;0.80;0.70;;;;;;;;;;5013051;28;20495;-69
2021/03/21 05:49:57;;;;;;;0.70;0.60;;;;;;;;;;5012442;28;20457;-69
2021/03/21 05:52:26;;;;;;;1.00;0.90;;;;;;;;;;4995054;28;20420;-69
2021/03/21 05:54:59;;;;;;;0.70;0.60;;;;;;;;;;5013067;28;20478;-69
2021/03/21 05:57:28;;;;;;;1.20;0.93;;;;;;;;;;5014350;28;20774;-67
2021/03/21 06:00:22;;;;;;;3.53;1.37;;;;;;;;;;5013034;28;20494;-67
2021/03/21 06:03:04;;;;;;;0.80;0.77;;;;;;;;;;4994335;28;20420;-67
2021/03/21 06:05:57;;;;;;;0.90;0.70;;;;;;;;;;5011141;28;20464;-68
2021/03/21 06:08:35;;;;;;;0.70;0.50;;;;;;;;;;5012321;28;21030;-67
2021/03/21 06:11:23;;;;;;;0.70;0.50;;;;;;;;;;5011623;28;20764;-68
2021/03/21 06:14:01;;;;;;;0.70;0.60;;;;;;;;;;5010988;28;20410;-68
2021/03/21 06:16:48;;;;;;;1.33;1.27;;;;;;;;;;5011917;28;20503;-68
2021/03/21 06:19:34;;;;;;;0.70;0.50;;;;;;;;;;5012780;28;20429;-67
2021/03/21 06:22:05;;;;;;;0.70;0.50;;;;;;;;;;5012588;28;20412;-66
2021/03/21 06:24:34;;;;;;;0.70;0.47;;;;;;;;;;5012498;28;20902;-67
2021/03/21 06:27:19;;;;;;;0.70;0.53;;;;;;;;;;5011129;28;20970;-67
2021/03/21 06:29:57;;;;;;;1.67;1.57;;;;;;;;;;5012256;28;20535;-68
2021/03/21 06:32:48;;;;;;;0.97;0.50;;;;;;;;;;5013520;28;20400;-67
2021/03/21 06:35:24;;;;;;;0.80;0.80;;;;;;;;;;5011335;28;20403;-68
2021/03/21 06:37:50;;;;;;;1.03;0.87;;;;;;;;;;5013235;28;20867;-68
2021/03/21 06:40:16;;;;;;;0.90;0.70;;;;;;;;;;5014011;28;20430;-69
2021/03/21 06:42:55;;;;;;;0.80;0.73;;;;;;;;;;5012315;28;20405;-67
2021/03/21 06:45:34;;;;;;;2.90;1.53;;;;;;;;;;5004623;28;20420;-69
2021/03/21 06:48:21;;;;;;;0.70;0.50;;;;;;;;;;5009052;28;20511;-69
2021/03/21 06:51:09;;;;;;;0.80;0.70;;;;;;;;;;5012699;28;20435;-67
2021/03/21 06:56:54;;;;;;;4.70;1.63;;;;;;;;;;5010723;28;20393;-67
2021/03/21 06:59:57;;;;;;;7.60;3.80;;;;;;;;;;5013919;28;20421;-66
2021/03/21 07:02:43;;;;;;;0.87;0.80;;;;;;;;;;5010422;28;20388;-67
2021/03/21 07:05:24;;;;;;;6.50;1.30;;;;;;;;;;4991246;28;20759;-68
2021/03/21 07:08:09;;;;;;;0.70;0.60;;;;;;;;;;5011890;28;20404;-67
2021/03/21 07:10:59;;;;;;;0.97;0.87;;;;;;;;;;5008388;28;20781;-68
2021/03/21 07:13:37;;;;;;;5.30;1.43;;;;;;;;;;4964587;28;20397;-66
2021/03/21 07:16:21;;;;;;;1.93;1.80;;;;;;;;;;5010105;28;20396;-66
2021/03/21 07:18:57;;;;;;;0.80;0.60;;;;;;;;;;5010816;28;20765;-67
2021/03/21 07:21:23;;;;;;;1.93;0.90;;;;;;;;;;5010553;28;21177;-66
2021/03/21 07:24:11;;;;;;;1.13;1.03;;;;;;;;;;5011490;28;20411;-66
2021/03/21 07:26:58;;;;;;;0.70;0.60;;;;;;;;;;4994358;28;20450;-67
2021/03/21 07:29:41;;;;;;;0.70;0.50;;;;;;;;;;5013586;28;20456;-68
2021/03/21 07:32:28;;;;;;;0.80;0.60;;;;;;;;;;5010928;28;20394;-67
2021/03/21 07:35:09;;;;;;;39.77;27.27;;;;;;;;;;5010153;28;20757;-68
2021/03/21 07:37:54;;;;;;;19.17;13.40;;;;;;;;;;5010386;28;20739;-68
2021/03/21 07:40:27;;;;;;;0.70;0.60;;;;;;;;;;5036075;22;20523;-79
2021/03/21 07:43:12;;;;;;;11.93;1.23;;;;;;;;;;5039257;28;20424;-81
2021/03/21 07:45:55;;;;;;;6.60;1.90;;;;;;;;;;5014592;28;20420;-79
2021/03/21 07:48:30;;;;;;;0.80;0.70;;;;;;;;;;5026991;28;20430;-82
2021/03/21 07:51:08;;;;;;;0.93;0.83;;;;;;;;;;5010946;28;20403;-83
2021/03/21 07:53:36;;;;;;;0.80;0.73;;;;;;;;;;5022157;28;20435;-82
2021/03/21 07:56:11;;;;;;;1.07;1.03;;;;;;;;;;5029053;28;20822;-82
2021/03/21 07:58:45;;;;;;;0.70;0.60;;;;;;;;;;5028041;28;20424;-82
2021/03/21 08:01:12;;;;;;;0.70;0.50;;;;;;;;;;5021772;28;20407;-83
2021/03/21 08:03:58;;;;;;;1.87;0.87;;;;;;;;;;5034849;28;21094;-82
2021/03/21 08:06:27;;;;;;;1.43;1.33;;;;;;;;;;5015092;28;20412;-86
2021/03/21 08:08:57;;;;;;;1.33;1.23;;;;;;;;;;5029155;28;20480;-77
2021/03/21 08:11:26;;;;;;;1.90;1.77;;;;;;;;;;5021412;28;20903;-78
2021/03/21 08:13:56;;;;;;;1.93;0.77;;;;;;;;;;5014686;28;20594;-77
2021/03/21 08:16:34;;;;;;;0.77;0.53;;;;;;;;;;5019107;28;20940;-82
2021/03/21 08:19:00;;;;;;;11.10;1.50;;;;;;;;;;5033342;28;20397;-81
2021/03/21 08:21:33;;;;;;;1.70;1.00;;;;;;;;;;5033304;28;20423;-85
2021/03/21 08:24:24;;;;;;;0.77;0.73;;;;;;;;;;5009080;28;20436;-78
2021/03/21 08:26:51;;;;;;;20.30;1.40;;;;;;;;;;5024031;28;20397;-77
2021/03/21 08:29:24;;;;;;;2.70;1.00;;;;;;;;;;5017430;28;20429;-79
2021/03/21 08:32:12;;;;;;;0.70;0.50;;;;;;;;;;5017642;28;20507;-78
2021/03/21 08:37:27;;;;;;;1.17;0.83;;;;;;;;;;5059892;28;20450;-68
2021/03/21 08:39:55;;;;;;;1.10;0.80;;;;;;;;;;5060774;28;20384;-69
2021/03/21 08:42:27;;;;;;;0.70;0.50;;;;;;;;;;5053593;28;20410;-67
2021/03/21 08:45:02;;;;;;;0.80;0.70;;;;;;;;;;5038084;28;20444;-68
2021/03/21 08:47:29;;;;;;;0.70;0.60;;;;;;;;;;5042511;28;20454;-68
2021/03/21 08:49:56;;;;;;;2.00;1.43;;;;;;;;;;5040610;28;21443;-69
2021/03/21 08:52:33;;;;;;;1.33;1.23;;;;;;;;;;5038929;28;20394;-68
2021/03/21 08:55:00;;;;;;;0.90;0.90;;;;;;;;;;5040613;28;20411;-68
2021/03/21 08:57:31;;;;;;;1.00;0.90;;;;;;;;;;5040220;28;20416;-68
2021/03/21 09:00:15;;;;;;;5.63;2.07;;;;;;;;;;5041730;28;20763;-68
2021/03/21 09:02:41;;;;;;;1.30;1.20;;;;;;;;;;5040506;28;20495;-68
2021/03/21 09:05:09;;;;;;;4.40;2.50;;;;;;;;;;5039681;28;20391;-69
2021/03/21 09:07:36;;;;;;;2.27;0.93;;;;;;;;;;5041754;28;20378;-69
2021/03/21 09:10:10;;;;;;;0.90;0.90;;;;;;;;;;5051149;28;20429;-69
2021/03/21 09:12:46;;;;;;;4.30;1.87;;;;;;;;;;5051835;28;20472;-69
2021/03/21 09:15:21;;;;;;;2.90;1.13;;;;;;;;;;5044773;28;20381;-69
2021/03/21 09:18:13;;;;;;;4.07;1.03;;;;;;;;;;5040871;28;20788;-68
2021/03/21 09:20:44;;;;;;;1.53;1.43;;;;;;;;;;5039076;28;20389;-69
2021/03/21 09:23:25;;;;;;;4.30;0.90;;;;;;;;;;5041185;28;20508;-69
2021/03/21 09:25:54;;;;;;;7.30;1.37;;;;;;;;;;5048830;28;20419;-68
2021/03/21 09:28:21;;;;;;;1.13;1.03;;;;;;;;;;5064692;28;20414;-68
2021/03/21 09:30:47;;;;;;;1.30;1.07;;;;;;;;;;5061827;28;20485;-68
2021/03/21 09:33:26;;;;;;;0.80;0.80;;;;;;;;;;5038292;28;20457;-68
2021/03/21 09:36:05;;;;;;;0.80;0.67;;;;;;;;;;5049663;28;20775;-69
2021/03/21 09:38:33;;;;;;;3.17;0.90;;;;;;;;;;5059302;28;20889;-69
2021/03/21 09:41:02;;;;;;;0.77;0.57;;;;;;;;;;5051612;28;20561;-68
2021/03/21 09:43:33;;;;;;;1.23;1.13;;;;;;;;;;5052230;28;20860;-67
2021/03/21 09:46:08;;;;;;;16.17;12.47;;;;;;;;;;5038358;28;20435;-68
2021/03/21 09:48:38;;;;;;;0.80;0.60;;;;;;;;;;5048266;28;20468;-68
2021/03/21 09:51:23;;;;;;;1.97;0.80;;;;;;;;;;5037422;28;20424;-68
2021/03/21 09:53:49;;;;;;;214.47;81.13;;;;;;;;;;5049016;28;20432;-69
2021/03/21 09:56:19;;;;;;;0.70;0.50;;;;;;;;;;5038821;28;20418;-68
2021/03/21 09:59:05;;;;;;;2.60;1.10;;;;;;;;;;5040274;28;20889;-68
2021/03/21 10:01:52;;;;;;;3.53;1.00;;;;;;;;;;5047324;28;21003;-68
2021/03/21 10:04:35;;;;;;;1.60;1.50;;;;;;;;;;5038940;28;20404;-68
2021/03/21 10:07:03;;;;;;;0.93;0.80;;;;;;;;;;5039963;28;20438;-67
2021/03/21 10:09:32;;;;;;;0.97;0.90;;;;;;;;;;5045524;28;20461;-62
2021/03/21 10:12:04;;;;;;;2.70;2.50;;;;;;;;;;5046719;28;20773;-62
2021/03/21 10:14:30;;;;;;;6.10;1.10;;;;;;;;;;5042369;28;20408;-62
2021/03/21 10:16:59;;;;;;;0.77;0.57;;;;;;;;;;5042669;28;20817;-63
2021/03/21 10:19:44;;;;;;;1.30;1.20;;;;;;;;;;5040764;28;20804;-68
2021/03/21 10:22:19;;;;;;;1.00;0.87;;;;;;;;;;5038899;28;20445;-67
2021/03/21 10:24:46;;;;;;;3.00;1.03;;;;;;;;;;5044412;28;20382;-69
2021/03/21 10:27:22;;;;;;;2.47;0.60;;;;;;;;;;5046708;28;20947;-67
2021/03/21 10:29:52;;;;;;;3.90;1.00;;;;;;;;;;5048565;28;20948;-68
2021/03/21 10:32:20;;;;;;;5.93;2.57;;;;;;;;;;5048747;28;21103;-68
2021/03/21 10:34:46;;;;;;;2.50;1.07;;;;;;;;;;5047818;28;20401;-68
2021/03/21 10:37:13;;;;;;;1.10;0.60;;;;;;;;;;5048776;28;20417;-68
2021/03/21 10:39:42;;;;;;;1.73;1.63;;;;;;;;;;5049859;28;20411;-68
2021/03/21 10:42:14;;;;;;;0.80;0.60;;;;;;;;;;5049550;28;20800;-68
2021/03/21 10:44:41;;;;;;;0.80;0.60;;;;;;;;;;5049835;28;20395;-69
2021/03/21 10:47:25;;;;;;;0.77;0.60;;;;;;;;;;5049048;28;20433;-68
2021/03/21 10:49:51;;;;;;;1.47;0.80;;;;;;;;;;5049101;28;20775;-68
2021/03/21 10:52:36;;;;;;;0.70;0.40;;;;;;;;;;5048871;28;20456;-68
2021/03/21 10:55:17;;;;;;;0.70;0.50;;;;;;;;;;5048412;28;20435;-68
2021/03/21 10:57:43;;;;;;;1.20;0.93;;;;;;;;;;5050373;28;20381;-68
2021/03/21 11:00:30;;;;;;;124.73;113.07;;;;;;;;;;5048964;28;20485;-68
2021/03/21 11:03:02;;;;;;;34.80;20.87;;;;;;;;;;5046511;28;20935;-68
2021/03/21 11:05:30;;;;;;;0.90;0.60;;;;;;;;;;5044857;28;20382;-67
2021/03/21 11:08:15;;;;;;;0.73;0.67;;;;;;;;;;5043772;28;20401;-67
2021/03/21 11:10:43;;;;;;;0.70;0.50;;;;;;;;;;5043788;28;20808;-69
2021/03/21 11:13:11;;;;;;;0.70;0.60;;;;;;;;;;5048113;28;20414;-68
2021/03/21 11:15:44;;;;;;;0.70;0.50;;;;;;;;;;5051184;28;20399;-69
2021/03/21 11:18:30;;;;;;;0.80;0.70;;;;;;;;;;5035901;28;20851;-69
2021/03/21 11:21:09;;;;;;;2.90;0.90;;;;;;;;;;5048440;28;20380;-69
2021/03/21 11:23:47;;;;;;;0.70;0.60;;;;;;;;;;5048788;28;20434;-68
2021/03/21 11:26:25;;;;;;;0.90;0.70;;;;;;;;;;5048332;28;20418;-69
2021/03/21 11:29:09;;;;;;;30.63;16.63;;;;;;;;;;5050013;28;20458;-69
2021/03/21 11:31:37;;;;;;;40.50;36.87;;;;;;;;;;5049788;28;20430;-69
2021/03/21 11:34:18;;;;;;;617.17;561.00;;;;;;;;;;5052576;28;20507;-69
2021/03/21 11:36:45;;;;;;;571.53;516.30;;;;;;;;;;5045239;28;20431;-69
2021/03/21 11:39:14;;;;;;;585.50;508.73;;;;;;;;;;5047200;28;20399;-69
2021/03/21 11:41:41;;;;;;;558.03;448.10;;;;;;;;;;5046742;28;20836;-69
2021/03/21 11:44:18;;;;;;;568.80;497.03;;;;;;;;;;5046163;28;20415;-69
2021/03/21 11:46:44;;;;;;;563.73;489.93;;;;;;;;;;5048608;28;20411;-68
2021/03/21 11:49:11;;;;;;;576.30;513.33;;;;;;;;;;5053867;28;20534;-69
2021/03/21 11:51:38;;;;;;;543.72;478.08;;;;;;;;;;5054046;28;20423;-70
2021/03/21 11:54:05;;;;;;;538.08;463.92;;;;;;;;;;5043850;28;20208;-69
2021/03/21 11:56:34;;;;;;;530.30;439.38;;;;;;;;;;5049625;28;20199;-67
2021/03/21 11:59:04;;;;;;;514.45;391.83;;;;;;;;;;5053348;28;20179;-69
2021/03/21 12:01:41;;;;;;;515.20;383.27;;;;;;;;;;5039797;28;20177;-66
2021/03/21 12:04:10;;;;;;;509.50;365.08;;;;;;;;;;5047125;28;20172;-69
2021/03/21 12:06:41;;;;;;;511.05;367.23;;;;;;;;;;5049790;28;20176;-69
2021/03/21 12:09:33;;;;;;;560.22;441.90;;;;;;;;;;5061822;28;20200;-69
2021/03/21 12:12:01;;;;;;;526.47;383.67;;;;;;;;;;5011221;28;20200;-77
2021/03/21 12:14:29;;;;;;;508.67;343.40;;;;;;;;;;5047066;28;20180;-69
2021/03/21 12:16:55;;;;;;;517.88;364.92;;;;;;;;;;5041479;28;20302;-69
2021/03/21 12:19:35;;;;;;;504.35;337.92;;;;;;;;;;5058767;28;20164;-70
2021/03/21 12:22:05;;;;;;;499.60;315.30;;;;;;;;;;5043380;28;20584;-70
2021/03/21 12:24:32;;;;;;;500.83;318.42;;;;;;;;;;5039837;28;20211;-68
2021/03/21 12:26:58;;;;;;;498.25;311.52;;;;;;;;;;5041798;28;20181;-68
2021/03/21 12:29:24;;;;;;;518.33;296.30;;;;;;;;;;5043208;28;20188;-68
2021/03/21 12:31:51;;;;;;;516.20;323.80;;;;;;;;;;5038640;28;20427;-68
2021/03/21 12:34:21;;;;;;;512.83;344.80;;;;;;;;;;5041855;28;20422;-69
2021/03/21 12:36:59;;;;;;;511.00;334.23;;;;;;;;;;5039507;28;20260;-68
2021/03/21 12:39:45;;;;;;;536.67;339.90;;;;;;;;;;5044335;28;20544;-67
2021/03/21 12:42:26;;;;;;;553.00;434.93;;;;;;;;;;5049346;28;20553;-69
2021/03/21 12:45:01;;;;;;;580.90;401.17;;;;;;;;;;5051666;28;20399;-68
2021/03/21 12:47:33;;;;;;;569.33;395.57;;;;;;;;;;5049359;28;20402;-69
2021/03/21 12:49:59;;;;;;;500.42;290.88;;;;;;;;;;5048409;28;20458;-70
2021/03/21 12:52:43;;;;;;;512.03;334.55;;;;;;;;;;5043283;28;20218;-70
2021/03/21 12:55:09;;;;;;;539.42;427.02;;;;;;;;;;5049659;28;20260;-70
2021/03/21 12:57:35;;;;;;;702.20;635.30;;;;;;;;;;5047200;28;20176;-69
2021/03/21 13:00:01;;;;;;;548.63;482.03;;;;;;;;;;5053626;28;20418;-69
2021/03/21 13:02:32;;;;;;;580.40;520.13;;;;;;;;;;5052323;28;20473;-70
2021/03/21 13:04:59;;;;;;;611.85;551.13;;;;;;;;;;5051482;28;20779;-71
2021/03/21 13:07:26;;;;;;;639.63;578.17;;;;;;;;;;5051332;28;20173;-70
2021/03/21 13:09:53;;;;;;;505.50;308.87;;;;;;;;;;5050188;28;20464;-70
2021/03/21 13:12:19;;;;;;;553.33;404.93;;;;;;;;;;5047895;28;20426;-70
2021/03/21 13:14:45;;;;;;;668.10;603.07;;;;;;;;;;5051597;28;20391;-70
2021/03/21 13:17:11;;;;;;;930.77;854.43;;;;;;;;;;5048936;28;20810;-70
2021/03/21 13:19:37;;;;;;;782.97;713.70;;;;;;;;;;5049663;28;20682;-69
2021/03/21 13:22:04;;;;;;;521.77;387.93;;;;;;;;;;5048509;28;22910;-69
2021/03/21 13:24:30;;;;;;;510.35;335.60;;;;;;;;;;5050781;28;20419;-70
2021/03/21 13:26:56;;;;;;;455.50;202.70;;;;;;;;;;5048290;28;20620;-69
2021/03/21 13:29:22;;;;;;;703.55;636.75;;;;;;;;;;5047604;28;20468;-69
2021/03/21 13:31:48;;;;;;;797.63;727.90;;;;;;;;;;5048253;28;20200;-68
2021/03/21 13:34:14;;;;;;;568.72;500.15;;;;;;;;;;5054372;28;20460;-70
2021/03/21 13:36:41;;;;;;;421.73;153.95;;;;;;;;;;5047360;28;20813;-70
2021/03/21 13:39:08;;;;;;;548.70;369.23;;;;;;;;;;5037860;28;20274;-70
2021/03/21 13:41:34;;;;;;;516.20;279.67;;;;;;;;;;5042036;28;20173;-69
2021/03/21 13:44:00;;;;;;;19.07;17.43;;;;;;;;;;5043174;28;20169;-69
2021/03/21 13:46:27;;;;;;;492.45;279.27;;;;;;;;;;5047418;28;20471;-69
2021/03/21 13:48:53;;;;;;;437.05;149.45;;;;;;;;;;5053693;28;20238;-70
2021/03/21 13:51:19;;;;;;;399.20;128.88;;;;;;;;;;5041526;28;20176;-70
2021/03/21 13:53:45;;;;;;;625.17;507.25;;;;;;;;;;5045039;28;20157;-70
2021/03/21 13:56:14;;;;;;;542.07;391.20;;;;;;;;;;5038362;28;20172;-70
2021/03/21 13:58:40;;;;;;;525.90;356.58;;;;;;;;;;5042928;28;20422;-69
2021/03/21 14:01:05;;;;;;;519.13;318.97;;;;;;;;;;5045746;28;20656;-69
2021/03/21 14:03:31;;;;;;;520.73;313.53;;;;;;;;;;5035976;28;20489;-69
2021/03/21 14:06:00;;;;;;;511.43;282.37;;;;;;;;;;5047278;28;20491;-69
2021/03/21 14:08:28;;;;;;;522.45;289.20;;;;;;;;;;5038934;28;20418;-69
2021/03/21 14:10:55;;;;;;;499.05;245.80;;;;;;;;;;5040073;28;20200;-69
2021/03/21 14:13:21;;;;;;;522.53;279.88;;;;;;;;;;5047531;28;20223;-69
2021/03/21 14:15:47;;;;;;;521.45;267.67;;;;;;;;;;5035610;28;20232;-69
2021/03/21 14:18:15;;;;;;;512.65;222.75;;;;;;;;;;5045830;28;20532;-70
2021/03/21 14:20:42;;;;;;;433.45;150.20;;;;;;;;;;5040454;28;20251;-70
2021/03/21 14:23:10;;;;;;;166.10;45.67;;;;;;;;;;5038612;28;20563;-69
2021/03/21 14:25:39;;;;;;;59.20;28.05;;;;;;;;;;5034887;28;20227;-69
2021/03/21 14:28:05;;;;;;;346.38;90.55;;;;;;;;;;5045884;28;20277;-70
2021/03/21 14:30:32;;;;;;;28.77;18.38;;;;;;;;;;5036514;28;20192;-70
2021/03/21 14:32:58;;;;;;;34.85;22.98;;;;;;;;;;5045871;28;20610;-70
2021/03/21 14:35:26;;;;;;;209.93;56.78;;;;;;;;;;5047986;28;20539;-70
2021/03/21 14:37:52;;;;;;;124.65;36.90;;;;;;;;;;5046383;28;20165;-70
2021/03/21 14:40:19;;;;;;;36.23;20.03;;;;;;;;;;5038233;28;20654;-71
2021/03/21 14:42:45;;;;;;;19.17;14.25;;;;;;;;;;5040153;28;20507;-69
2021/03/21 14:45:12;;;;;;;52.00;21.17;;;;;;;;;;5045705;28;20598;-69
2021/03/21 14:47:39;;;;;;;118.35;45.22;;;;;;;;;;5034991;28;20184;-71
2021/03/21 14:50:06;;;;;;;37.92;19.88;;;;;;;;;;5046582;28;20197;-70
2021/03/21 14:52:32;;;;;;;46.05;20.67;;;;;;;;;;5037568;22;20224;-71
2021/03/21 14:54:58;;;;;;;38.00;18.27;;;;;;;;;;5002578;28;20503;-72
2021/03/21 14:57:24;;;;;;;109.82;38.15;;;;;;;;;;5027341;28;20437;-72
2021/03/21 14:59:53;;;;;;;159.30;56.77;;;;;;;;;;5020254;28;20174;-72
2021/03/21 15:02:19;;;;;;;132.35;47.88;;;;;;;;;;5022136;28;20447;-72
2021/03/21 15:04:45;;;;;;;159.63;59.95;;;;;;;;;;5026263;28;20239;-71